createdAt,value
2018-12-13T00:00:00.793Z,-21074.14
2018-12-13T00:02:28.651Z,-21071.44
2018-12-13T00:04:56.031Z,-21088.41
2018-12-13T00:07:23.433Z,-21089.83
2018-12-13T00:09:50.821Z,-21097.52
2018-12-13T00:12:18.223Z,-21088.27
2018-12-13T00:14:45.719Z,-21091.54
2018-12-13T00:17:13.089Z,-21089.68
2018-12-13T00:19:40.559Z,-21084.98
2018-12-13T00:22:07.947Z,-21091.83
2018-12-13T00:24:35.343Z,-21054.46
2018-12-13T00:27:02.763Z,-21089.54
2018-12-13T00:29:30.157Z,-21086.98
2018-12-13T00:31:57.606Z,-21083.27
2018-12-13T00:34:25.080Z,-21079.00
2018-12-13T00:36:52.479Z,-21088.97
2018-12-13T00:39:19.881Z,-21083.98
2018-12-13T00:41:47.286Z,-21083.84
2018-12-13T00:44:14.693Z,-21091.83
2018-12-13T00:46:42.079Z,-21088.97
2018-12-13T00:49:09.784Z,-21081.27
2018-12-13T00:51:37.215Z,-21081.99
2018-12-13T00:54:04.674Z,-21093.11
2018-12-13T00:56:32.144Z,-21079.14
2018-12-13T00:58:59.545Z,-21072.43
2018-12-13T01:01:27.026Z,-21063.73
2018-12-13T01:03:54.465Z,-21073.29
2018-12-13T01:06:21.852Z,-21074.14
2018-12-13T01:08:49.254Z,-21045.61
2018-12-13T01:11:16.649Z,-21055.60
2018-12-13T01:13:44.059Z,-21098.37
2018-12-13T01:16:13.665Z,-21084.55
2018-12-13T01:18:41.134Z,-21072.15
2018-12-13T01:21:08.641Z,-21090.11
2018-12-13T01:23:36.038Z,-21087.98
2018-12-13T01:26:03.422Z,-21080.70
2018-12-13T01:28:30.814Z,-21080.41
2018-12-13T01:30:58.233Z,-21060.31
2018-12-13T01:33:26.634Z,-21054.46
2018-12-13T01:35:56.545Z,-21058.60
2018-12-13T01:38:24.282Z,-21073.86
2018-12-13T01:40:51.935Z,-21070.44
2018-12-13T01:43:20.418Z,-21068.44
2018-12-13T01:45:47.858Z,-21075.57
2018-12-13T01:48:15.263Z,-21067.01
2018-12-13T01:50:44.350Z,-21074.86
2018-12-13T01:53:11.751Z,-21068.58
2018-12-13T01:55:39.168Z,-21065.30
2018-12-13T01:58:06.563Z,-21063.59
2018-12-13T02:00:33.955Z,-21063.59
2018-12-13T02:03:01.351Z,-21080.84
2018-12-13T02:05:28.764Z,-21074.43
2018-12-13T02:07:56.160Z,-21083.70
2018-12-13T02:10:23.546Z,-21078.00
2018-12-13T02:12:50.947Z,-21070.01
2018-12-13T02:15:18.613Z,-21074.00
2018-12-13T02:17:46.000Z,-21072.00
2018-12-13T02:20:13.415Z,-21071.58
2018-12-13T02:22:40.889Z,-21071.29
2018-12-13T02:25:08.350Z,-21079.99
2018-12-13T02:27:35.733Z,-21077.28
2018-12-13T02:30:03.279Z,-21067.87
2018-12-13T02:32:30.746Z,-21073.14
2018-12-13T02:34:58.137Z,-21071.29
2018-12-13T02:37:25.546Z,-21072.15
2018-12-13T02:39:52.955Z,-21069.87
2018-12-13T02:42:20.718Z,-21065.59
2018-12-13T02:44:48.122Z,-21074.00
2018-12-13T02:47:15.599Z,-21078.00
2018-12-13T02:49:43.038Z,-21085.27
2018-12-13T02:52:10.429Z,-21080.13
2018-12-13T02:54:37.833Z,-21084.70
2018-12-13T02:57:05.226Z,-21077.85
2018-12-13T02:59:32.605Z,-21077.00
2018-12-13T03:02:00.031Z,-21078.57
2018-12-13T03:04:27.418Z,-21076.28
2018-12-13T03:06:54.809Z,-21075.57
2018-12-13T03:09:22.323Z,-21074.14
2018-12-13T03:11:49.784Z,-21051.04
2018-12-13T03:14:17.239Z,-21069.44
2018-12-13T03:16:44.697Z,-21068.73
2018-12-13T03:19:12.094Z,-21072.15
2018-12-13T03:21:39.494Z,-21072.00
2018-12-13T03:24:06.910Z,-21064.30
2018-12-13T03:26:34.301Z,-21071.58
2018-12-13T03:29:01.688Z,-21065.45
2018-12-13T03:31:29.090Z,-21067.01
2018-12-13T03:33:56.502Z,-21063.16
2018-12-13T03:36:23.910Z,-21066.44
2018-12-13T03:38:51.300Z,-21072.43
2018-12-13T03:41:18.684Z,-21073.57
2018-12-13T03:43:46.161Z,-21059.31
2018-12-13T03:46:13.582Z,-21073.71
2018-12-13T03:48:40.971Z,-21068.58
2018-12-13T03:51:08.403Z,-21065.73
2018-12-13T03:53:35.910Z,-21060.88
2018-12-13T03:56:03.313Z,-21066.44
2018-12-13T03:58:30.727Z,-21063.02
2018-12-13T04:00:58.113Z,-21058.31
2018-12-13T04:03:25.505Z,-21038.76
2018-12-13T04:05:52.879Z,-21061.17
2018-12-13T04:08:20.285Z,-21062.88
2018-12-13T04:10:47.687Z,-21060.03
2018-12-13T04:13:15.141Z,-21046.61
2018-12-13T04:15:42.633Z,-21051.32
2018-12-13T04:18:10.081Z,-21052.75
2018-12-13T04:20:37.477Z,-21057.60
2018-12-13T04:23:04.874Z,-21051.46
2018-12-13T04:25:32.274Z,-21049.89
2018-12-13T04:28:06.716Z,-21052.32
2018-12-13T04:30:34.114Z,-21044.90
2018-12-13T04:33:01.655Z,-21045.61
2018-12-13T04:35:29.055Z,-21048.75
2018-12-13T04:37:56.521Z,-21050.61
2018-12-13T04:40:23.915Z,-21041.90
2018-12-13T04:42:51.342Z,-21055.17
2018-12-13T04:45:18.722Z,-21030.48
2018-12-13T04:47:46.166Z,-21044.47
2018-12-13T04:50:13.621Z,-21048.32
2018-12-13T04:52:41.009Z,-21051.61
2018-12-13T04:55:08.416Z,-21045.04
2018-12-13T04:57:35.814Z,-21046.04
2018-12-13T05:00:03.526Z,-21036.76
2018-12-13T05:02:30.942Z,-21043.47
2018-12-13T05:04:58.358Z,-21051.04
2018-12-13T05:07:25.757Z,-21051.61
2018-12-13T05:09:53.230Z,-21027.34
2018-12-13T05:12:20.641Z,-21046.75
2018-12-13T05:14:48.017Z,-21051.61
2018-12-13T05:17:15.414Z,-21059.60
2018-12-13T05:19:42.861Z,-21055.89
2018-12-13T05:22:10.263Z,-21056.46
2018-12-13T05:24:37.647Z,-21053.03
2018-12-13T05:27:05.238Z,-21047.04
2018-12-13T05:29:32.636Z,-21055.32
2018-12-13T05:32:00.018Z,-21050.89
2018-12-13T05:34:27.468Z,-21059.31
2018-12-13T05:36:54.933Z,-21059.31
2018-12-13T05:39:22.340Z,-21057.74
2018-12-13T05:41:49.734Z,-21035.91
2018-12-13T05:44:19.094Z,-21006.47
2018-12-13T05:46:46.498Z,-21040.19
2018-12-13T05:49:14.449Z,-21041.33
2018-12-13T05:51:42.366Z,-21040.76
2018-12-13T05:54:10.265Z,-21035.62
2018-12-13T05:56:37.733Z,-21021.48
2018-12-13T05:59:05.126Z,-21024.19
2018-12-13T06:01:32.537Z,-21029.48
2018-12-13T06:03:59.922Z,-21024.62
2018-12-13T06:06:27.348Z,-21025.91
2018-12-13T06:08:54.739Z,-21035.05
2018-12-13T06:11:22.126Z,-21022.19
2018-12-13T06:13:49.533Z,-21027.34
2018-12-13T06:16:16.949Z,-21013.47
2018-12-13T06:18:44.350Z,-20999.46
2018-12-13T06:21:11.998Z,-21003.89
2018-12-13T06:23:39.431Z,-21010.04
2018-12-13T06:26:06.901Z,-21010.75
2018-12-13T06:28:34.314Z,-21017.77
2018-12-13T06:31:01.677Z,-21030.05
2018-12-13T06:33:29.076Z,-21012.90
2018-12-13T06:35:56.453Z,-21018.05
2018-12-13T06:38:30.079Z,-21022.19
2018-12-13T06:40:57.449Z,-21014.05
2018-12-13T06:43:24.855Z,-21011.47
2018-12-13T06:45:52.276Z,-21023.76
2018-12-13T06:48:19.645Z,-21022.05
2018-12-13T06:50:47.058Z,-21018.20
2018-12-13T06:53:14.462Z,-21027.34
2018-12-13T06:55:41.861Z,-21038.05
2018-12-13T06:58:09.256Z,-21030.34
2018-12-13T07:00:36.651Z,-21029.62
2018-12-13T07:03:04.065Z,-21030.48
2018-12-13T07:05:31.486Z,-21037.90
2018-12-13T07:07:58.890Z,-21033.05
2018-12-13T07:10:26.293Z,-21040.19
2018-12-13T07:12:53.698Z,-21035.48
2018-12-13T07:15:21.124Z,-21036.19
2018-12-13T07:17:48.530Z,-21036.05
2018-12-13T07:20:15.934Z,-21041.76
2018-12-13T07:22:43.380Z,-21038.05
2018-12-13T07:25:10.792Z,-21030.19
2018-12-13T07:27:38.192Z,-21041.33
2018-12-13T07:30:07.729Z,-21024.33
2018-12-13T07:32:35.266Z,-21028.76
2018-12-13T07:35:02.665Z,-21038.05
2018-12-13T07:37:30.057Z,-21030.76
2018-12-13T07:39:57.453Z,-21038.48
2018-12-13T07:42:24.854Z,-21035.76
2018-12-13T07:44:52.250Z,-21024.62
2018-12-13T07:47:19.678Z,-21023.76
2018-12-13T07:49:47.140Z,-21017.20
2018-12-13T07:52:14.575Z,-21017.05
2018-12-13T07:54:42.021Z,-21027.91
2018-12-13T07:57:09.431Z,-21023.05
2018-12-13T07:59:36.824Z,-21020.19
2018-12-13T08:02:04.285Z,-21015.62
2018-12-13T08:04:31.746Z,-21029.62
2018-12-13T08:06:59.155Z,-21013.04
2018-12-13T08:09:26.640Z,-21023.48
2018-12-13T08:11:54.073Z,-21036.91
2018-12-13T08:14:21.565Z,-21035.76
2018-12-13T08:16:48.972Z,-21034.34
2018-12-13T08:19:16.394Z,-21041.76
2018-12-13T08:21:43.768Z,-21031.34
2018-12-13T08:24:11.199Z,-21039.05
2018-12-13T08:26:38.591Z,-21045.32
2018-12-13T08:29:06.063Z,-21040.19
2018-12-13T08:31:33.438Z,-21042.33
2018-12-13T08:34:00.854Z,-21039.19
2018-12-13T08:36:28.233Z,-21046.18
2018-12-13T08:38:55.634Z,-21066.30
2018-12-13T08:41:23.047Z,-21057.32
2018-12-13T08:43:50.458Z,-21054.89
2018-12-13T08:46:17.863Z,-21061.45
2018-12-13T08:48:45.258Z,-21057.03
2018-12-13T08:51:12.650Z,-21053.32
2018-12-13T08:53:40.074Z,-21068.73
2018-12-13T08:56:07.460Z,-21067.30
2018-12-13T08:58:34.863Z,-21052.46
2018-12-13T09:01:02.298Z,-21060.46
2018-12-13T09:03:29.692Z,-21073.00
2018-12-13T09:05:57.197Z,-21070.16
2018-12-13T09:08:24.598Z,-21064.73
2018-12-13T09:10:52.105Z,-21061.88
2018-12-13T09:13:19.504Z,-21081.70
2018-12-13T09:15:47.003Z,-21061.59
2018-12-13T09:18:14.402Z,-21064.88
2018-12-13T09:20:42.027Z,-21080.41
2018-12-13T09:23:09.637Z,-21072.72
2018-12-13T09:25:37.118Z,-21064.16
2018-12-13T09:28:04.639Z,-21076.71
2018-12-13T09:30:32.097Z,-21082.84
2018-12-13T09:32:59.485Z,-21096.96
2018-12-13T09:35:26.882Z,-21099.66
2018-12-13T09:37:54.341Z,-21100.37
2018-12-13T09:40:21.738Z,-21096.96
2018-12-13T09:42:49.181Z,-21112.34
2018-12-13T09:45:16.575Z,-21083.98
2018-12-13T09:47:44.297Z,-21093.39
2018-12-13T09:50:17.883Z,-21097.24
2018-12-13T09:53:01.178Z,-21102.93
2018-12-13T09:55:29.235Z,-21115.90
2018-12-13T09:57:56.694Z,-21102.37
2018-12-13T10:00:27.008Z,-21101.23
2018-12-13T10:02:54.503Z,-21098.37
2018-12-13T10:05:21.941Z,-21109.20
2018-12-13T10:07:49.376Z,-21102.65
2018-12-13T10:10:16.767Z,-21113.48
2018-12-13T10:12:44.172Z,-21099.09
2018-12-13T10:15:11.547Z,-21105.22
2018-12-13T10:17:38.965Z,-21107.78
2018-12-13T10:20:06.389Z,-21110.63
2018-12-13T10:22:33.781Z,-21079.99
2018-12-13T10:25:01.174Z,-21083.70
2018-12-13T10:27:28.618Z,-21094.81
2018-12-13T10:29:56.023Z,-21095.10
2018-12-13T10:32:23.423Z,-21101.52
2018-12-13T10:34:50.950Z,-21083.41
2018-12-13T10:37:18.322Z,-21102.93
2018-12-13T10:39:45.724Z,-21087.13
2018-12-13T10:42:13.201Z,-21086.13
2018-12-13T10:44:41.869Z,-21100.80
2018-12-13T10:47:09.286Z,-21093.39
2018-12-13T10:49:36.691Z,-21071.01
2018-12-13T10:52:04.141Z,-21085.70
2018-12-13T10:54:31.551Z,-21099.23
2018-12-13T10:56:58.969Z,-21102.37
2018-12-13T10:59:26.338Z,-21096.67
2018-12-13T11:01:59.459Z,-21095.81
2018-12-13T11:04:26.849Z,-21093.39
2018-12-13T11:06:54.250Z,-21103.22
2018-12-13T11:09:21.647Z,-21101.80
2018-12-13T11:11:49.026Z,-21097.95
2018-12-13T11:14:16.427Z,-21107.21
2018-12-13T11:16:43.812Z,-21107.49
2018-12-13T11:19:11.233Z,-21102.93
2018-12-13T11:21:38.618Z,-21098.52
2018-12-13T11:24:06.089Z,-21100.80
2018-12-13T11:26:33.509Z,-21104.65
2018-12-13T11:29:12.769Z,-21099.38
2018-12-13T11:31:40.208Z,-21103.79
2018-12-13T11:34:07.626Z,-21113.19
2018-12-13T11:36:35.040Z,-21113.19
2018-12-13T11:39:09.402Z,-21125.86
2018-12-13T11:41:36.820Z,-21129.70
2018-12-13T11:44:04.222Z,-21145.78
2018-12-13T11:46:31.627Z,-21129.13
2018-12-13T11:48:59.025Z,-21132.54
2018-12-13T11:51:26.427Z,-21128.42
2018-12-13T11:53:53.829Z,-21166.67
2018-12-13T11:56:21.359Z,-21170.93
2018-12-13T11:58:48.750Z,-21183.14
2018-12-13T12:01:16.177Z,-21204.43
2018-12-13T12:03:43.577Z,-21232.64
2018-12-13T12:06:10.987Z,-21224.71
2018-12-13T12:08:38.365Z,-21256.16
2018-12-13T12:11:05.774Z,-21263.51
2018-12-13T12:13:33.196Z,-21264.64
2018-12-13T12:16:00.622Z,-21285.00
2018-12-13T12:18:28.019Z,-21256.01
2018-12-13T12:20:55.458Z,-21271.85
2018-12-13T12:23:22.863Z,-21283.45
2018-12-13T12:25:50.254Z,-21289.25
2018-12-13T12:28:17.653Z,-21292.93
2018-12-13T12:30:45.039Z,-21285.43
2018-12-13T12:33:12.441Z,-21308.46
2018-12-13T12:35:44.742Z,-21211.24
2018-12-13T12:38:12.217Z,-21286.13
2018-12-13T12:40:39.605Z,-21264.07
2018-12-13T12:43:06.994Z,-21257.99
2018-12-13T12:45:34.405Z,-21280.20
2018-12-13T12:48:01.810Z,-21278.36
2018-12-13T12:50:29.296Z,-21265.92
2018-12-13T12:52:56.670Z,-21272.42
2018-12-13T12:55:24.073Z,-21233.78
2018-12-13T12:57:51.459Z,-21224.85
2018-12-13T13:00:18.858Z,-21210.39
2018-12-13T13:02:47.583Z,-21178.46
2018-12-13T13:05:15.133Z,-21162.12
2018-12-13T13:07:42.521Z,-21177.60
2018-12-13T13:10:10.070Z,-21157.01
2018-12-13T13:12:37.465Z,-21174.91
2018-12-13T13:15:05.471Z,-21149.04
2018-12-13T13:17:32.899Z,-21155.58
2018-12-13T13:20:00.290Z,-21154.16
2018-12-13T13:22:27.766Z,-21157.01
2018-12-13T13:24:55.165Z,-21152.17
2018-12-13T13:27:23.549Z,-21118.03
2018-12-13T13:29:50.935Z,-21121.87
2018-12-13T13:32:18.341Z,-21117.18
2018-12-13T13:34:45.734Z,-21111.48
2018-12-13T13:37:13.466Z,-21123.58
2018-12-13T13:39:40.877Z,-21108.63
2018-12-13T13:42:08.334Z,-21121.44
2018-12-13T13:44:37.631Z,-21114.61
2018-12-13T13:47:05.089Z,-21117.46
2018-12-13T13:49:32.569Z,-21101.66
2018-12-13T13:52:00.070Z,-21117.46
2018-12-13T13:54:27.466Z,-21107.49
2018-12-13T13:56:54.851Z,-21119.03
2018-12-13T13:59:22.249Z,-21110.48
2018-12-13T14:01:49.649Z,-21102.93
2018-12-13T14:04:17.051Z,-21100.66
2018-12-13T14:06:44.453Z,-21101.37
2018-12-13T14:09:11.914Z,-21106.36
2018-12-13T14:11:39.309Z,-21100.94
2018-12-13T14:14:06.710Z,-21067.73
2018-12-13T14:16:34.078Z,-21088.69
2018-12-13T14:19:01.473Z,-21086.70
2018-12-13T14:21:28.875Z,-21094.39
2018-12-13T14:23:56.325Z,-21099.38
2018-12-13T14:26:23.724Z,-21096.96
2018-12-13T14:28:51.123Z,-21088.41
2018-12-13T14:31:18.514Z,-21090.40
2018-12-13T14:33:45.972Z,-21098.23
2018-12-13T14:36:13.375Z,-21082.41
2018-12-13T14:38:40.778Z,-21084.13
2018-12-13T14:41:08.158Z,-21075.43
2018-12-13T14:43:35.557Z,-21082.84
2018-12-13T14:46:03.026Z,-21089.54
2018-12-13T14:48:30.430Z,-21091.54
2018-12-13T14:50:57.802Z,-21093.82
2018-12-13T14:53:25.206Z,-21081.27
2018-12-13T14:55:52.599Z,-21086.98
2018-12-13T14:58:20.006Z,-21079.70
2018-12-13T15:00:47.399Z,-21080.99
2018-12-13T15:03:14.832Z,-21085.84
2018-12-13T15:05:42.221Z,-21081.56
2018-12-13T15:08:09.605Z,-21092.96
2018-12-13T15:10:36.995Z,-21079.70
2018-12-13T15:13:04.389Z,-21073.43
2018-12-13T15:15:31.840Z,-21092.25
2018-12-13T15:17:59.294Z,-21077.28
2018-12-13T15:20:26.720Z,-21056.74
2018-12-13T15:22:54.198Z,-21087.41
2018-12-13T15:25:21.609Z,-21084.27
2018-12-13T15:27:49.003Z,-21082.27
2018-12-13T15:30:16.413Z,-21083.84
2018-12-13T15:32:43.792Z,-21084.70
2018-12-13T15:35:11.186Z,-21083.70
2018-12-13T15:37:38.561Z,-21090.97
2018-12-13T15:40:07.262Z,-21080.99
2018-12-13T15:42:35.056Z,-21080.99
2018-12-13T15:45:02.514Z,-21085.55
2018-12-13T15:47:29.915Z,-21069.87
2018-12-13T15:49:57.358Z,-21086.98
2018-12-13T15:52:24.755Z,-21076.14
2018-12-13T15:54:52.182Z,-21089.12
2018-12-13T15:57:19.638Z,-21083.27
2018-12-13T15:59:47.067Z,-21083.70
2018-12-13T16:02:14.487Z,-21076.86
2018-12-13T16:04:41.865Z,-21091.83
2018-12-13T16:07:09.246Z,-21077.57
2018-12-13T16:09:36.633Z,-21085.55
2018-12-13T16:12:04.094Z,-21071.86
2018-12-13T16:14:31.514Z,-21080.99
2018-12-13T16:16:58.951Z,-21075.86
2018-12-13T16:19:26.326Z,-21079.42
2018-12-13T16:21:53.795Z,-21076.00
2018-12-13T16:24:21.231Z,-21075.57
2018-12-13T16:26:48.620Z,-21066.73
2018-12-13T16:29:16.001Z,-21073.00
2018-12-13T16:31:43.418Z,-21078.28
2018-12-13T16:34:10.821Z,-21077.71
2018-12-13T16:36:38.205Z,-21069.16
2018-12-13T16:39:07.957Z,-21068.44
2018-12-13T16:41:35.359Z,-21074.57
2018-12-13T16:44:02.853Z,-21071.44
2018-12-13T16:46:30.272Z,-21055.17
2018-12-13T16:48:57.671Z,-21069.16
2018-12-13T16:51:26.365Z,-21079.28
2018-12-13T16:53:54.601Z,-21069.30
2018-12-13T16:56:22.022Z,-21062.16
2018-12-13T16:58:49.429Z,-21065.30
2018-12-13T17:01:16.837Z,-21071.86
2018-12-13T17:03:44.242Z,-21076.86
2018-12-13T17:06:11.698Z,-21060.31
2018-12-13T17:08:39.083Z,-21055.17
2018-12-13T17:11:06.489Z,-21063.87
2018-12-13T17:13:33.997Z,-21064.16
2018-12-13T17:16:01.382Z,-21062.16
2018-12-13T17:18:28.782Z,-21065.45
2018-12-13T17:20:56.179Z,-21064.02
2018-12-13T17:23:23.577Z,-21067.59
2018-12-13T17:25:50.975Z,-21063.30
2018-12-13T17:28:18.402Z,-21053.03
2018-12-13T17:30:45.826Z,-21054.46
2018-12-13T17:33:13.207Z,-21070.73
2018-12-13T17:35:40.826Z,-21054.32
2018-12-13T17:38:08.301Z,-21058.31
2018-12-13T17:40:35.698Z,-21066.59
2018-12-13T17:43:03.097Z,-21059.31
2018-12-13T17:45:32.474Z,-21067.16
2018-12-13T17:48:00.276Z,-21051.04
2018-12-13T17:50:27.706Z,-21045.32
2018-12-13T17:52:55.117Z,-21055.17
2018-12-13T17:55:22.527Z,-21056.32
2018-12-13T17:57:49.898Z,-21054.32
2018-12-13T18:00:17.277Z,-21055.17
2018-12-13T18:02:44.714Z,-21056.46
2018-12-13T18:05:12.131Z,-21039.33
2018-12-13T18:07:39.529Z,-21047.32
2018-12-13T18:10:09.686Z,-21049.89
2018-12-13T18:12:37.095Z,-21056.17
2018-12-13T18:15:05.307Z,-21062.73
2018-12-13T18:17:32.702Z,-21060.03
2018-12-13T18:20:00.093Z,-21053.89
2018-12-13T18:22:27.506Z,-21070.44
2018-12-13T18:24:54.902Z,-21063.73
2018-12-13T18:27:22.358Z,-21068.73
2018-12-13T18:29:49.721Z,-21066.16
2018-12-13T18:32:17.114Z,-21054.03
2018-12-13T18:34:44.561Z,-21047.04
2018-12-13T18:37:11.946Z,-21027.76
2018-12-13T18:39:39.369Z,-21026.48
2018-12-13T18:42:06.770Z,-21025.62
2018-12-13T18:44:34.154Z,-21031.62
2018-12-13T18:47:01.565Z,-21022.76
2018-12-13T18:49:29.017Z,-21025.19
2018-12-13T18:51:56.447Z,-21028.91
2018-12-13T18:54:23.829Z,-21039.76
2018-12-13T18:56:51.218Z,-21036.48
2018-12-13T18:59:18.621Z,-21027.76
2018-12-13T19:01:46.054Z,-21032.48
2018-12-13T19:04:13.545Z,-21026.33
2018-12-13T19:06:40.947Z,-21024.91
2018-12-13T19:09:08.358Z,-21028.91
2018-12-13T19:11:35.856Z,-21027.34
2018-12-13T19:14:03.372Z,-21020.19
2018-12-13T19:16:30.778Z,-21045.75
2018-12-13T19:18:58.219Z,-21060.74
2018-12-13T19:21:25.597Z,-21032.91
2018-12-13T19:23:53.032Z,-21020.05
2018-12-13T19:26:20.429Z,-21027.34
2018-12-13T19:28:47.873Z,-21038.05
2018-12-13T19:31:15.370Z,-21033.05
2018-12-13T19:33:42.762Z,-21038.48
2018-12-13T19:36:10.150Z,-21038.62
2018-12-13T19:38:37.720Z,-21052.89
2018-12-13T19:41:05.107Z,-21067.30
2018-12-13T19:43:32.540Z,-21064.02
2018-12-13T19:48:43.182Z,-21070.16
2018-12-13T19:51:10.600Z,-21069.16
2018-12-13T19:53:38.033Z,-21071.86
2018-12-13T19:56:05.418Z,-21075.71
2018-12-13T19:58:32.830Z,-21069.16
2018-12-13T20:01:00.245Z,-21050.18
2018-12-13T20:03:27.717Z,-21056.17
2018-12-13T20:05:55.128Z,-21079.28
2018-12-13T20:08:22.517Z,-21063.73
2018-12-13T20:10:54.579Z,-21052.18
2018-12-13T20:13:19.320Z,-21057.32
2018-12-13T20:15:46.697Z,-21057.46
2018-12-13T20:18:14.207Z,-21056.17
2018-12-13T20:20:41.644Z,-21049.18
2018-12-13T20:23:09.051Z,-21047.89
2018-12-13T20:25:36.429Z,-21053.89
2018-12-13T20:28:03.839Z,-21066.73
2018-12-13T20:30:31.316Z,-21060.17
2018-12-13T20:32:58.721Z,-21057.32
2018-12-13T20:35:26.175Z,-21051.04
2018-12-13T20:37:53.966Z,-21057.03
2018-12-13T20:40:21.452Z,-21062.45
2018-12-13T20:42:48.847Z,-21052.75
2018-12-13T20:45:16.264Z,-21058.46
2018-12-13T20:47:43.690Z,-21058.31
2018-12-13T20:50:11.099Z,-21066.16
2018-12-13T20:52:38.501Z,-21067.01
2018-12-13T20:55:05.972Z,-21057.89
2018-12-13T20:57:33.415Z,-21069.44
2018-12-13T21:00:00.920Z,-21068.01
2018-12-13T21:02:28.322Z,-21071.58
2018-12-13T21:04:55.833Z,-21055.32
2018-12-13T21:07:37.932Z,-21064.59
2018-12-13T21:10:06.230Z,-21072.72
2018-12-13T21:12:33.652Z,-21065.02
2018-12-13T21:15:01.079Z,-21065.87
2018-12-13T21:17:28.457Z,-21072.00
2018-12-13T21:19:55.866Z,-21066.44
2018-12-13T21:22:23.285Z,-21060.17
2018-12-13T21:24:50.742Z,-21066.73
2018-12-13T21:27:18.162Z,-21077.00
2018-12-13T21:29:45.591Z,-21070.16
2018-12-13T21:32:12.967Z,-21068.87
2018-12-13T21:34:40.422Z,-21079.85
2018-12-13T21:37:07.839Z,-21066.02
2018-12-13T21:39:35.346Z,-21067.01
2018-12-13T21:42:02.743Z,-21081.13
2018-12-13T21:44:31.005Z,-21072.86
2018-12-13T21:46:58.406Z,-21084.41
2018-12-13T21:49:25.855Z,-21072.29
2018-12-13T21:51:53.249Z,-21079.85
2018-12-13T21:54:20.654Z,-21091.11
2018-12-13T21:56:48.355Z,-21077.85
2018-12-13T21:59:15.737Z,-21079.85
2018-12-13T22:01:43.141Z,-21086.55
2018-12-13T22:04:10.536Z,-21069.73
2018-12-13T22:06:38.009Z,-21069.58
2018-12-13T22:09:06.376Z,-21075.00
2018-12-13T22:11:33.761Z,-21077.71
2018-12-13T22:14:01.149Z,-21060.88
2018-12-13T22:16:28.566Z,-21072.15
2018-12-13T22:18:55.981Z,-21067.44
2018-12-13T22:21:23.465Z,-21057.03
2018-12-13T22:23:50.866Z,-21064.16
2018-12-13T22:26:18.272Z,-21068.16
2018-12-13T22:28:45.666Z,-21068.01
2018-12-13T22:31:13.071Z,-21066.16
2018-12-13T22:33:40.469Z,-21075.86
2018-12-13T22:36:07.861Z,-21054.89
2018-12-13T22:38:35.354Z,-21067.16
2018-12-13T22:41:03.994Z,-21065.30
2018-12-13T22:43:31.833Z,-21068.30
2018-12-13T22:46:01.186Z,-21057.74
2018-12-13T22:48:28.597Z,-21054.03
2018-12-13T22:50:56.032Z,-21067.30
2018-12-13T22:53:23.465Z,-21071.72
2018-12-13T22:55:50.832Z,-21058.03
2018-12-13T22:58:18.270Z,-21065.87
2018-12-13T23:00:45.721Z,-21066.16
2018-12-13T23:03:13.120Z,-21061.31
2018-12-13T23:05:40.541Z,-21065.59
2018-12-13T23:08:07.951Z,-21069.44
2018-12-13T23:10:35.362Z,-21073.00
2018-12-13T23:13:02.814Z,-21065.30
2018-12-13T23:15:30.523Z,-21063.59
2018-12-13T23:17:57.945Z,-21066.59
2018-12-13T23:20:25.344Z,-21064.59
2018-12-13T23:22:52.762Z,-21078.57
2018-12-13T23:25:20.186Z,-21074.29
2018-12-13T23:27:47.589Z,-21058.31
2018-12-13T23:30:15.001Z,-21067.87
2018-12-13T23:32:42.401Z,-21064.88
2018-12-13T23:35:09.850Z,-21070.44
2018-12-13T23:37:37.248Z,-21062.45
2018-12-13T23:40:04.721Z,-21060.31
2018-12-13T23:42:32.201Z,-21049.18
2018-12-13T23:44:59.625Z,-21076.86
2018-12-13T23:47:27.017Z,-21062.88
2018-12-13T23:49:54.509Z,-21063.45
2018-12-13T23:52:21.914Z,-21069.01
2018-12-13T23:54:49.315Z,-21076.57
2018-12-13T23:57:16.699Z,-21073.43
2018-12-13T23:59:44.098Z,-21087.98
